sensor_id;sensor_type;location;lat;lon;timestamp;temperature;humidity
56300;DHT22;42209;6.376;-10.782;2023-09-07T00:01:33;21.40;56.30
56300;DHT22;42209;6.376;-10.782;2023-09-07T00:04:02;21.40;55.40
56300;DHT22;42209;6.376;-10.782;2023-09-07T00:08:50;21.40;53.90
56300;DHT22;42209;6.376;-10.782;2023-09-07T00:14:24;21.90;62.20
56300;DHT22;42209;6.376;-10.782;2023-09-07T00:16:52;22.10;63.40
56300;DHT22;42209;6.376;-10.782;2023-09-07T00:23:15;22.40;65.60
56300;DHT22;42209;6.376;-10.782;2023-09-07T00:25:43;22.60;68.10
56300;DHT22;42209;6.376;-10.782;2023-09-07T00:28:11;22.40;66.70
56300;DHT22;42209;6.376;-10.782;2023-09-07T00:30:40;22.20;62.10
56300;DHT22;42209;6.376;-10.782;2023-09-07T00:33:09;22.00;60.10
56300;DHT22;42209;6.376;-10.782;2023-09-07T00:35:37;21.80;58.90
56300;DHT22;42209;6.376;-10.782;2023-09-07T00:38:09;21.60;57.60
56300;DHT22;42209;6.376;-10.782;2023-09-07T00:40:44;21.50;56.30
56300;DHT22;42209;6.376;-10.782;2023-09-07T00:43:13;21.50;55.60
56300;DHT22;42209;6.376;-10.782;2023-09-07T00:45:41;21.40;54.60
56300;DHT22;42209;6.376;-10.782;2023-09-07T00:48:12;21.30;54.00
56300;DHT22;42209;6.376;-10.782;2023-09-07T00:50:42;21.40;57.60
56300;DHT22;42209;6.376;-10.782;2023-09-07T00:53:11;21.70;61.90
56300;DHT22;42209;6.376;-10.782;2023-09-07T00:55:39;21.80;65.90
56300;DHT22;42209;6.376;-10.782;2023-09-07T00:58:08;21.90;69.00
56300;DHT22;42209;6.376;-10.782;2023-09-07T01:00:36;22.10;70.90
56300;DHT22;42209;6.376;-10.782;2023-09-07T01:03:05;22.10;71.60
56300;DHT22;42209;6.376;-10.782;2023-09-07T01:05:58;22.20;73.40
56300;DHT22;42209;6.376;-10.782;2023-09-07T01:08:42;22.40;73.30
56300;DHT22;42209;6.376;-10.782;2023-09-07T01:11:20;22.50;74.50
56300;DHT22;42209;6.376;-10.782;2023-09-07T01:13:52;22.60;75.30
56300;DHT22;42209;6.376;-10.782;2023-09-07T01:16:23;22.70;73.50
56300;DHT22;42209;6.376;-10.782;2023-09-07T01:18:53;22.50;67.20
56300;DHT22;42209;6.376;-10.782;2023-09-07T01:21:22;22.30;64.00
56300;DHT22;42209;6.376;-10.782;2023-09-07T01:23:51;22.00;62.10
56300;DHT22;42209;6.376;-10.782;2023-09-07T01:26:21;21.90;60.60
56300;DHT22;42209;6.376;-10.782;2023-09-07T01:28:50;21.70;61.20
56300;DHT22;42209;6.376;-10.782;2023-09-07T01:31:18;21.90;67.50
56300;DHT22;42209;6.376;-10.782;2023-09-07T01:33:48;22.10;71.00
56300;DHT22;42209;6.376;-10.782;2023-09-07T01:36:18;22.20;72.50
56300;DHT22;42209;6.376;-10.782;2023-09-07T01:38:47;22.30;75.00
56300;DHT22;42209;6.376;-10.782;2023-09-07T01:41:15;22.30;76.30
56300;DHT22;42209;6.376;-10.782;2023-09-07T01:43:44;22.40;76.90
56300;DHT22;42209;6.376;-10.782;2023-09-07T01:46:13;22.50;76.50
56300;DHT22;42209;6.376;-10.782;2023-09-07T01:48:42;22.60;77.90
56300;DHT22;42209;6.376;-10.782;2023-09-07T01:51:10;22.80;77.80
56300;DHT22;42209;6.376;-10.782;2023-09-07T01:53:39;22.80;77.60
56300;DHT22;42209;6.376;-10.782;2023-09-07T01:56:08;23.00;77.50
56300;DHT22;42209;6.376;-10.782;2023-09-07T01:58:39;23.00;77.40
56300;DHT22;42209;6.376;-10.782;2023-09-07T02:01:23;23.10;77.20
56300;DHT22;42209;6.376;-10.782;2023-09-07T02:03:53;23.20;77.00
56300;DHT22;42209;6.376;-10.782;2023-09-07T02:06:24;23.30;77.40
56300;DHT22;42209;6.376;-10.782;2023-09-07T02:08:52;23.30;76.60
56300;DHT22;42209;6.376;-10.782;2023-09-07T02:11:21;23.40;76.40
56300;DHT22;42209;6.376;-10.782;2023-09-07T02:13:50;23.40;76.40
56300;DHT22;42209;6.376;-10.782;2023-09-07T02:16:22;23.40;76.10
56300;DHT22;42209;6.376;-10.782;2023-09-07T02:18:59;23.20;69.60
56300;DHT22;42209;6.376;-10.782;2023-09-07T02:21:29;22.80;66.20
56300;DHT22;42209;6.376;-10.782;2023-09-07T02:23:58;22.50;64.40
56300;DHT22;42209;6.376;-10.782;2023-09-07T02:26:26;22.40;69.00
56300;DHT22;42209;6.376;-10.782;2023-09-07T02:28:55;22.50;74.20
56300;DHT22;42209;6.376;-10.782;2023-09-07T02:31:25;22.60;76.00
56300;DHT22;42209;6.376;-10.782;2023-09-07T02:33:56;22.70;78.10
56300;DHT22;42209;6.376;-10.782;2023-09-07T02:36:25;22.70;79.40
56300;DHT22;42209;6.376;-10.782;2023-09-07T02:38:53;22.80;80.20
56300;DHT22;42209;6.376;-10.782;2023-09-07T02:41:22;22.90;80.00
56300;DHT22;42209;6.376;-10.782;2023-09-07T02:43:51;23.00;79.90
56300;DHT22;42209;6.376;-10.782;2023-09-07T02:46:22;23.10;79.30
56300;DHT22;42209;6.376;-10.782;2023-09-07T02:48:50;23.20;78.80
56300;DHT22;42209;6.376;-10.782;2023-09-07T02:51:19;23.30;78.30
56300;DHT22;42209;6.376;-10.782;2023-09-07T02:53:48;23.40;77.90
56300;DHT22;42209;6.376;-10.782;2023-09-07T02:56:30;23.50;75.00
56300;DHT22;42209;6.376;-10.782;2023-09-07T02:58:58;23.10;69.70
56300;DHT22;42209;6.376;-10.782;2023-09-07T03:01:27;22.80;66.70
56300;DHT22;42209;6.376;-10.782;2023-09-07T03:03:56;22.60;65.50
56300;DHT22;42209;6.376;-10.782;2023-09-07T03:06:29;22.60;71.70
56300;DHT22;42209;6.376;-10.782;2023-09-07T03:08:58;22.60;75.40
56300;DHT22;42209;6.376;-10.782;2023-09-07T03:11:27;22.70;77.70
56300;DHT22;42209;6.376;-10.782;2023-09-07T03:13:56;22.70;79.20
56300;DHT22;42209;6.376;-10.782;2023-09-07T03:16:25;22.80;80.60
56300;DHT22;42209;6.376;-10.782;2023-09-07T03:18:56;22.90;81.20
56300;DHT22;42209;6.376;-10.782;2023-09-07T03:21:25;22.90;81.70
56300;DHT22;42209;6.376;-10.782;2023-09-07T03:23:54;23.10;81.10
56300;DHT22;42209;6.376;-10.782;2023-09-07T03:26:22;23.20;81.00
56300;DHT22;42209;6.376;-10.782;2023-09-07T03:28:51;23.30;80.30
56300;DHT22;42209;6.376;-10.782;2023-09-07T03:31:21;23.40;79.80
56300;DHT22;42209;6.376;-10.782;2023-09-07T03:33:51;23.50;79.50
56300;DHT22;42209;6.376;-10.782;2023-09-07T03:36:19;23.40;74.70
56300;DHT22;42209;6.376;-10.782;2023-09-07T03:38:48;23.20;70.00
56300;DHT22;42209;6.376;-10.782;2023-09-07T03:41:17;22.80;66.90
56300;DHT22;42209;6.376;-10.782;2023-09-07T03:43:45;22.60;65.10
56300;DHT22;42209;6.376;-10.782;2023-09-07T03:46:18;22.60;68.20
56300;DHT22;42209;6.376;-10.782;2023-09-07T03:48:51;22.60;75.00
56300;DHT22;42209;6.376;-10.782;2023-09-07T03:51:19;22.70;76.80
56300;DHT22;42209;6.376;-10.782;2023-09-07T03:53:48;22.80;79.00
56300;DHT22;42209;6.376;-10.782;2023-09-07T03:56:16;22.90;79.70
56300;DHT22;42209;6.376;-10.782;2023-09-07T03:58:45;22.90;81.40
56300;DHT22;42209;6.376;-10.782;2023-09-07T04:01:16;23.00;82.00
56300;DHT22;42209;6.376;-10.782;2023-09-07T04:03:45;23.00;82.60
56300;DHT22;42209;6.376;-10.782;2023-09-07T04:06:14;23.10;82.40
56300;DHT22;42209;6.376;-10.782;2023-09-07T04:08:43;23.20;82.20
56300;DHT22;42209;6.376;-10.782;2023-09-07T04:11:15;23.30;82.00
56300;DHT22;42209;6.376;-10.782;2023-09-07T04:13:46;23.40;81.70
56300;DHT22;42209;6.376;-10.782;2023-09-07T04:16:14;23.50;81.40
56300;DHT22;42209;6.376;-10.782;2023-09-07T04:18:42;23.60;79.30
56300;DHT22;42209;6.376;-10.782;2023-09-07T04:21:11;23.30;73.60
56300;DHT22;42209;6.376;-10.782;2023-09-07T04:23:39;23.00;69.90
56300;DHT22;42209;6.376;-10.782;2023-09-07T04:26:09;22.70;67.30
56300;DHT22;42209;6.376;-10.782;2023-09-07T04:28:38;22.60;65.80
56300;DHT22;42209;6.376;-10.782;2023-09-07T04:31:08;22.60;72.10
56300;DHT22;42209;6.376;-10.782;2023-09-07T04:33:38;22.60;76.10
56300;DHT22;42209;6.376;-10.782;2023-09-07T04:36:10;22.70;77.80
56300;DHT22;42209;6.376;-10.782;2023-09-07T04:38:41;22.80;79.30
56300;DHT22;42209;6.376;-10.782;2023-09-07T04:41:14;22.90;80.70
56300;DHT22;42209;6.376;-10.782;2023-09-07T04:43:45;22.90;81.50
56300;DHT22;42209;6.376;-10.782;2023-09-07T04:46:14;23.00;81.90
56300;DHT22;42209;6.376;-10.782;2023-09-07T04:48:47;23.00;83.20
56300;DHT22;42209;6.376;-10.782;2023-09-07T04:51:17;23.10;82.90
56300;DHT22;42209;6.376;-10.782;2023-09-07T04:53:48;23.20;82.90
56300;DHT22;42209;6.376;-10.782;2023-09-07T04:56:19;23.30;82.20
56300;DHT22;42209;6.376;-10.782;2023-09-07T04:58:47;23.40;82.30
56300;DHT22;42209;6.376;-10.782;2023-09-07T05:01:17;23.50;82.00
56300;DHT22;42209;6.376;-10.782;2023-09-07T05:03:48;23.60;81.60
56300;DHT22;42209;6.376;-10.782;2023-09-07T05:06:18;23.60;81.30
56300;DHT22;42209;6.376;-10.782;2023-09-07T05:08:47;23.50;75.20
56300;DHT22;42209;6.376;-10.782;2023-09-07T05:11:19;23.20;70.70
56300;DHT22;42209;6.376;-10.782;2023-09-07T05:13:48;22.90;68.30
56300;DHT22;42209;6.376;-10.782;2023-09-07T05:16:18;22.70;66.50
56300;DHT22;42209;6.376;-10.782;2023-09-07T05:18:48;22.60;72.10
56300;DHT22;42209;6.376;-10.782;2023-09-07T05:21:16;22.70;75.70
56300;DHT22;42209;6.376;-10.782;2023-09-07T05:23:48;22.80;77.70
56300;DHT22;42209;6.376;-10.782;2023-09-07T05:26:24;22.90;79.30
56300;DHT22;42209;6.376;-10.782;2023-09-07T05:28:54;23.00;81.10
56300;DHT22;42209;6.376;-10.782;2023-09-07T05:31:26;23.00;81.80
56300;DHT22;42209;6.376;-10.782;2023-09-07T05:33:54;23.00;83.30
56300;DHT22;42209;6.376;-10.782;2023-09-07T05:36:23;23.10;83.10
56300;DHT22;42209;6.376;-10.782;2023-09-07T05:38:51;23.20;83.30
56300;DHT22;42209;6.376;-10.782;2023-09-07T05:41:20;23.30;83.20
56300;DHT22;42209;6.376;-10.782;2023-09-07T05:43:54;23.40;82.80
56300;DHT22;42209;6.376;-10.782;2023-09-07T05:46:24;23.40;82.40
56300;DHT22;42209;6.376;-10.782;2023-09-07T05:48:53;23.50;82.20
56300;DHT22;42209;6.376;-10.782;2023-09-07T05:51:21;23.60;81.60
56300;DHT22;42209;6.376;-10.782;2023-09-07T05:53:50;23.40;74.90
56300;DHT22;42209;6.376;-10.782;2023-09-07T05:56:18;23.10;70.90
56300;DHT22;42209;6.376;-10.782;2023-09-07T05:58:47;22.80;68.60
56300;DHT22;42209;6.376;-10.782;2023-09-07T06:01:16;22.60;67.40
56300;DHT22;42209;6.376;-10.782;2023-09-07T06:03:45;22.60;72.80
56300;DHT22;42209;6.376;-10.782;2023-09-07T06:06:14;22.70;76.90
56300;DHT22;42209;6.376;-10.782;2023-09-07T06:08:43;22.80;78.80
56300;DHT22;42209;6.376;-10.782;2023-09-07T06:11:12;22.90;80.00
56300;DHT22;42209;6.376;-10.782;2023-09-07T06:13:43;22.90;81.30
56300;DHT22;42209;6.376;-10.782;2023-09-07T06:16:11;23.10;82.30
56300;DHT22;42209;6.376;-10.782;2023-09-07T06:18:40;23.10;83.00
56300;DHT22;42209;6.376;-10.782;2023-09-07T06:21:08;23.20;83.40
56300;DHT22;42209;6.376;-10.782;2023-09-07T06:23:37;23.20;83.60
56300;DHT22;42209;6.376;-10.782;2023-09-07T06:26:08;23.30;83.20
56300;DHT22;42209;6.376;-10.782;2023-09-07T06:28:36;23.30;83.10
56300;DHT22;42209;6.376;-10.782;2023-09-07T06:31:05;23.40;82.70
56300;DHT22;42209;6.376;-10.782;2023-09-07T06:33:34;23.50;82.90
56300;DHT22;42209;6.376;-10.782;2023-09-07T06:36:03;23.60;82.60
56300;DHT22;42209;6.376;-10.782;2023-09-07T06:38:36;23.40;76.60
56300;DHT22;42209;6.376;-10.782;2023-09-07T06:41:04;23.20;72.70
56300;DHT22;42209;6.376;-10.782;2023-09-07T06:43:34;22.90;69.80
56300;DHT22;42209;6.376;-10.782;2023-09-07T06:46:07;22.70;67.50
56300;DHT22;42209;6.376;-10.782;2023-09-07T06:48:36;22.70;72.60
56300;DHT22;42209;6.376;-10.782;2023-09-07T06:51:06;22.70;77.00
56300;DHT22;42209;6.376;-10.782;2023-09-07T06:53:35;22.80;79.30
56300;DHT22;42209;6.376;-10.782;2023-09-07T06:56:24;22.90;80.80
56300;DHT22;42209;6.376;-10.782;2023-09-07T06:58:54;23.00;81.60
56300;DHT22;42209;6.376;-10.782;2023-09-07T07:01:23;23.00;83.00
56300;DHT22;42209;6.376;-10.782;2023-09-07T07:03:51;23.10;83.90
56300;DHT22;42209;6.376;-10.782;2023-09-07T07:06:21;23.10;84.60
56300;DHT22;42209;6.376;-10.782;2023-09-07T07:08:49;23.20;84.40
56300;DHT22;42209;6.376;-10.782;2023-09-07T07:11:18;23.30;84.30
56300;DHT22;42209;6.376;-10.782;2023-09-07T07:13:47;23.40;84.50
56300;DHT22;42209;6.376;-10.782;2023-09-07T07:16:16;23.40;84.60
56300;DHT22;42209;6.376;-10.782;2023-09-07T07:18:46;23.50;84.80
56300;DHT22;42209;6.376;-10.782;2023-09-07T07:21:31;23.60;85.50
56300;DHT22;42209;6.376;-10.782;2023-09-07T07:24:01;23.60;81.10
56300;DHT22;42209;6.376;-10.782;2023-09-07T07:26:30;23.30;75.80
56300;DHT22;42209;6.376;-10.782;2023-09-07T07:30:40;22.90;72.10
56300;DHT22;42209;6.376;-10.782;2023-09-07T07:33:12;23.00;74.30
56300;DHT22;42209;6.376;-10.782;2023-09-07T07:35:44;23.00;79.20
56300;DHT22;42209;6.376;-10.782;2023-09-07T07:38:13;23.10;81.30
56300;DHT22;42209;6.376;-10.782;2023-09-07T07:40:45;23.10;82.80
56300;DHT22;42209;6.376;-10.782;2023-09-07T07:43:15;23.20;84.00
56300;DHT22;42209;6.376;-10.782;2023-09-07T07:45:44;23.20;84.70
56300;DHT22;42209;6.376;-10.782;2023-09-07T07:48:12;23.20;85.20
56300;DHT22;42209;6.376;-10.782;2023-09-07T07:50:43;23.30;86.10
56300;DHT22;42209;6.376;-10.782;2023-09-07T07:53:14;23.30;86.20
56300;DHT22;42209;6.376;-10.782;2023-09-07T07:55:45;23.40;86.00
56300;DHT22;42209;6.376;-10.782;2023-09-07T07:58:17;23.50;85.00
56300;DHT22;42209;6.376;-10.782;2023-09-07T08:00:47;23.50;85.30
56300;DHT22;42209;6.376;-10.782;2023-09-07T08:03:24;23.60;85.30
56300;DHT22;42209;6.376;-10.782;2023-09-07T08:05:54;23.70;83.30
56300;DHT22;42209;6.376;-10.782;2023-09-07T08:08:22;23.40;77.00
56300;DHT22;42209;6.376;-10.782;2023-09-07T08:10:51;23.20;73.00
56300;DHT22;42209;6.376;-10.782;2023-09-07T08:13:20;22.90;70.20
56300;DHT22;42209;6.376;-10.782;2023-09-07T08:15:49;22.70;68.10
56300;DHT22;42209;6.376;-10.782;2023-09-07T08:18:18;22.60;67.80
56300;DHT22;42209;6.376;-10.782;2023-09-07T08:20:47;22.60;74.70
56300;DHT22;42209;6.376;-10.782;2023-09-07T08:23:19;22.70;77.20
56300;DHT22;42209;6.376;-10.782;2023-09-07T08:25:48;22.90;79.20
56300;DHT22;42209;6.376;-10.782;2023-09-07T08:28:17;22.90;80.60
56300;DHT22;42209;6.376;-10.782;2023-09-07T08:30:46;23.00;81.90
56300;DHT22;42209;6.376;-10.782;2023-09-07T08:33:14;23.10;82.60
56300;DHT22;42209;6.376;-10.782;2023-09-07T08:35:43;23.10;83.80
56300;DHT22;42209;6.376;-10.782;2023-09-07T08:38:11;23.20;84.60
56300;DHT22;42209;6.376;-10.782;2023-09-07T08:40:40;23.20;85.20
56300;DHT22;42209;6.376;-10.782;2023-09-07T08:43:09;23.30;84.60
56300;DHT22;42209;6.376;-10.782;2023-09-07T08:45:40;23.30;85.20
56300;DHT22;42209;6.376;-10.782;2023-09-07T08:48:12;23.40;85.20
56300;DHT22;42209;6.376;-10.782;2023-09-07T08:50:42;23.50;85.10
56300;DHT22;42209;6.376;-10.782;2023-09-07T08:53:10;23.60;84.90
56300;DHT22;42209;6.376;-10.782;2023-09-07T08:55:39;23.60;84.70
56300;DHT22;42209;6.376;-10.782;2023-09-07T08:58:08;23.50;78.70
56300;DHT22;42209;6.376;-10.782;2023-09-07T09:00:37;23.20;74.50
56300;DHT22;42209;6.376;-10.782;2023-09-07T09:03:06;22.90;71.60
56300;DHT22;42209;6.376;-10.782;2023-09-07T09:05:38;22.70;70.20
56300;DHT22;42209;6.376;-10.782;2023-09-07T09:08:07;22.60;68.60
56300;DHT22;42209;6.376;-10.782;2023-09-07T09:10:39;22.50;68.50
56300;DHT22;42209;6.376;-10.782;2023-09-07T09:13:08;22.60;76.00
56300;DHT22;42209;6.376;-10.782;2023-09-07T09:15:36;22.80;79.00
56300;DHT22;42209;6.376;-10.782;2023-09-07T09:18:11;22.90;81.30
56300;DHT22;42209;6.376;-10.782;2023-09-07T09:20:40;23.00;82.50
56300;DHT22;42209;6.376;-10.782;2023-09-07T09:23:10;23.10;83.60
56300;DHT22;42209;6.376;-10.782;2023-09-07T09:25:42;23.10;84.30
56300;DHT22;42209;6.376;-10.782;2023-09-07T09:28:11;23.20;85.40
56300;DHT22;42209;6.376;-10.782;2023-09-07T09:30:41;23.20;86.10
56300;DHT22;42209;6.376;-10.782;2023-09-07T09:33:11;23.20;86.20
56300;DHT22;42209;6.376;-10.782;2023-09-07T09:35:40;23.30;86.70
56300;DHT22;42209;6.376;-10.782;2023-09-07T09:38:13;23.40;87.10
56300;DHT22;42209;6.376;-10.782;2023-09-07T09:40:42;23.50;87.50
56300;DHT22;42209;6.376;-10.782;2023-09-07T09:43:13;23.50;87.40
56300;DHT22;42209;6.376;-10.782;2023-09-07T09:45:42;23.60;87.50
56300;DHT22;42209;6.376;-10.782;2023-09-07T09:48:13;23.70;86.70
56300;DHT22;42209;6.376;-10.782;2023-09-07T09:50:44;23.40;79.30
56300;DHT22;42209;6.376;-10.782;2023-09-07T09:53:13;23.20;75.60
56300;DHT22;42209;6.376;-10.782;2023-09-07T09:55:48;23.00;72.90
56300;DHT22;42209;6.376;-10.782;2023-09-07T09:58:17;22.80;71.00
56300;DHT22;42209;6.376;-10.782;2023-09-07T10:00:50;22.60;68.30
56300;DHT22;42209;6.376;-10.782;2023-09-07T10:03:28;22.50;68.00
56300;DHT22;42209;6.376;-10.782;2023-09-07T10:06:11;22.60;74.40
56300;DHT22;42209;6.376;-10.782;2023-09-07T10:08:40;22.70;78.10
56300;DHT22;42209;6.376;-10.782;2023-09-07T10:11:36;22.80;80.20
56300;DHT22;42209;6.376;-10.782;2023-09-07T10:14:06;22.90;81.80
56300;DHT22;42209;6.376;-10.782;2023-09-07T10:16:46;23.10;83.20
56300;DHT22;42209;6.376;-10.782;2023-09-07T10:19:20;23.10;84.40
56300;DHT22;42209;6.376;-10.782;2023-09-07T10:21:50;23.10;85.50
56300;DHT22;42209;6.376;-10.782;2023-09-07T10:24:29;23.20;86.40
56300;DHT22;42209;6.376;-10.782;2023-09-07T10:27:03;23.30;86.90
56300;DHT22;42209;6.376;-10.782;2023-09-07T10:29:58;23.40;86.80
56300;DHT22;42209;6.376;-10.782;2023-09-07T10:32:38;23.40;87.70
56300;DHT22;42209;6.376;-10.782;2023-09-07T10:35:15;23.50;87.90
56300;DHT22;42209;6.376;-10.782;2023-09-07T10:37:48;23.60;87.70
56300;DHT22;42209;6.376;-10.782;2023-09-07T10:40:22;23.70;87.80
56300;DHT22;42209;6.376;-10.782;2023-09-07T10:43:16;23.60;80.90
56300;DHT22;42209;6.376;-10.782;2023-09-07T10:46:45;23.30;76.20
56300;DHT22;42209;6.376;-10.782;2023-09-07T10:49:18;23.00;72.90
56300;DHT22;42209;6.376;-10.782;2023-09-07T10:51:50;22.80;70.90
56300;DHT22;42209;6.376;-10.782;2023-09-07T10:54:24;22.70;69.50
56300;DHT22;42209;6.376;-10.782;2023-09-07T10:57:11;22.60;67.60
56300;DHT22;42209;6.376;-10.782;2023-09-07T10:59:47;22.40;66.60
56300;DHT22;42209;6.376;-10.782;2023-09-07T11:02:17;22.50;70.00
56300;DHT22;42209;6.376;-10.782;2023-09-07T11:04:46;22.70;76.10
56300;DHT22;42209;6.376;-10.782;2023-09-07T11:07:15;22.80;78.50
56300;DHT22;42209;6.376;-10.782;2023-09-07T11:09:44;22.90;80.30
56300;DHT22;42209;6.376;-10.782;2023-09-07T11:12:13;22.90;81.50
56300;DHT22;42209;6.376;-10.782;2023-09-07T11:14:42;23.00;82.30
56300;DHT22;42209;6.376;-10.782;2023-09-07T11:17:11;23.10;83.10
56300;DHT22;42209;6.376;-10.782;2023-09-07T11:19:39;23.20;84.70
56300;DHT22;42209;6.376;-10.782;2023-09-07T11:22:12;23.20;85.70
56300;DHT22;42209;6.376;-10.782;2023-09-07T11:24:40;23.30;86.40
56300;DHT22;42209;6.376;-10.782;2023-09-07T11:27:09;23.30;86.50
56300;DHT22;42209;6.376;-10.782;2023-09-07T11:29:38;23.40;87.00
56300;DHT22;42209;6.376;-10.782;2023-09-07T11:32:08;23.50;87.40
56300;DHT22;42209;6.376;-10.782;2023-09-07T11:35:03;23.60;87.70
56300;DHT22;42209;6.376;-10.782;2023-09-07T11:37:32;23.70;87.90
56300;DHT22;42209;6.376;-10.782;2023-09-07T11:40:02;23.70;84.70
56300;DHT22;42209;6.376;-10.782;2023-09-07T11:42:30;23.50;79.80
56300;DHT22;42209;6.376;-10.782;2023-09-07T11:44:59;23.20;75.30
56300;DHT22;42209;6.376;-10.782;2023-09-07T11:47:28;23.00;73.00
56300;DHT22;42209;6.376;-10.782;2023-09-07T11:49:58;22.90;71.20
56300;DHT22;42209;6.376;-10.782;2023-09-07T11:52:27;22.70;69.30
56300;DHT22;42209;6.376;-10.782;2023-09-07T11:54:59;22.60;68.40
56300;DHT22;42209;6.376;-10.782;2023-09-07T11:57:27;22.50;67.00
56300;DHT22;42209;6.376;-10.782;2023-09-07T11:59:57;22.40;66.40
56300;DHT22;42209;6.376;-10.782;2023-09-07T12:02:38;22.40;65.30
56300;DHT22;42209;6.376;-10.782;2023-09-07T12:05:09;22.30;64.90
56300;DHT22;42209;6.376;-10.782;2023-09-07T12:07:38;22.20;65.00
56300;DHT22;42209;6.376;-10.782;2023-09-07T12:10:07;22.30;69.10
56300;DHT22;42209;6.376;-10.782;2023-09-07T12:12:39;22.60;75.60
56300;DHT22;42209;6.376;-10.782;2023-09-07T12:15:09;22.70;77.80
56300;DHT22;42209;6.376;-10.782;2023-09-07T12:17:38;22.80;79.90
56300;DHT22;42209;6.376;-10.782;2023-09-07T12:20:07;23.00;81.60
56300;DHT22;42209;6.376;-10.782;2023-09-07T12:22:39;23.10;82.80
56300;DHT22;42209;6.376;-10.782;2023-09-07T12:25:08;23.10;83.80
56300;DHT22;42209;6.376;-10.782;2023-09-07T12:27:42;23.20;86.00
56300;DHT22;42209;6.376;-10.782;2023-09-07T12:30:20;23.20;85.90
56300;DHT22;42209;6.376;-10.782;2023-09-07T12:32:49;23.30;86.70
56300;DHT22;42209;6.376;-10.782;2023-09-07T12:35:18;23.40;87.30
56300;DHT22;42209;6.376;-10.782;2023-09-07T12:37:47;23.50;87.60
56300;DHT22;42209;6.376;-10.782;2023-09-07T12:40:16;23.50;88.40
56300;DHT22;42209;6.376;-10.782;2023-09-07T12:42:50;23.60;88.40
56300;DHT22;42209;6.376;-10.782;2023-09-07T12:45:19;23.70;88.70
56300;DHT22;42209;6.376;-10.782;2023-09-07T12:47:48;23.50;80.80
56300;DHT22;42209;6.376;-10.782;2023-09-07T12:50:16;23.20;76.80
56300;DHT22;42209;6.376;-10.782;2023-09-07T12:52:46;23.00;74.40
56300;DHT22;42209;6.376;-10.782;2023-09-07T12:55:15;22.80;71.90
56300;DHT22;42209;6.376;-10.782;2023-09-07T12:57:43;22.70;70.20
56300;DHT22;42209;6.376;-10.782;2023-09-07T13:00:12;22.60;68.40
56300;DHT22;42209;6.376;-10.782;2023-09-07T13:02:42;22.40;66.30
56300;DHT22;42209;6.376;-10.782;2023-09-07T13:05:12;22.40;65.50
56300;DHT22;42209;6.376;-10.782;2023-09-07T13:07:42;22.30;66.00
56300;DHT22;42209;6.376;-10.782;2023-09-07T13:10:14;22.40;72.20
56300;DHT22;42209;6.376;-10.782;2023-09-07T13:12:47;22.60;75.60
56300;DHT22;42209;6.376;-10.782;2023-09-07T13:15:15;22.70;77.70
56300;DHT22;42209;6.376;-10.782;2023-09-07T13:17:44;22.90;79.40
56300;DHT22;42209;6.376;-10.782;2023-09-07T13:20:12;22.90;80.30
56300;DHT22;42209;6.376;-10.782;2023-09-07T13:22:41;23.00;81.70
56300;DHT22;42209;6.376;-10.782;2023-09-07T13:25:12;23.10;82.80
56300;DHT22;42209;6.376;-10.782;2023-09-07T13:27:40;23.20;82.70
56300;DHT22;42209;6.376;-10.782;2023-09-07T13:30:09;23.20;83.70
56300;DHT22;42209;6.376;-10.782;2023-09-07T13:32:38;23.30;84.20
56300;DHT22;42209;6.376;-10.782;2023-09-07T13:35:08;23.40;84.30
56300;DHT22;42209;6.376;-10.782;2023-09-07T13:37:37;23.40;84.50
56300;DHT22;42209;6.376;-10.782;2023-09-07T13:40:06;23.50;83.40
56300;DHT22;42209;6.376;-10.782;2023-09-07T13:42:38;23.60;84.60
56300;DHT22;42209;6.376;-10.782;2023-09-07T13:45:06;23.70;84.30
56300;DHT22;42209;6.376;-10.782;2023-09-07T13:47:35;23.70;82.30
56300;DHT22;42209;6.376;-10.782;2023-09-07T13:50:05;23.50;76.50
56300;DHT22;42209;6.376;-10.782;2023-09-07T13:52:34;23.20;73.10
56300;DHT22;42209;6.376;-10.782;2023-09-07T13:55:04;23.00;71.10
56300;DHT22;42209;6.376;-10.782;2023-09-07T13:57:35;22.80;69.00
56300;DHT22;42209;6.376;-10.782;2023-09-07T14:00:05;22.60;66.20
56300;DHT22;42209;6.376;-10.782;2023-09-07T14:02:34;22.60;70.10
56300;DHT22;42209;6.376;-10.782;2023-09-07T14:05:03;22.70;75.60
56300;DHT22;42209;6.376;-10.782;2023-09-07T14:07:31;22.80;78.10
56300;DHT22;42209;6.376;-10.782;2023-09-07T14:10:01;22.90;80.10
56300;DHT22;42209;6.376;-10.782;2023-09-07T14:12:29;23.10;82.40
56300;DHT22;42209;6.376;-10.782;2023-09-07T14:14:58;23.20;84.00
56300;DHT22;42209;6.376;-10.782;2023-09-07T14:17:27;23.20;85.10
56300;DHT22;42209;6.376;-10.782;2023-09-07T14:19:57;23.30;86.70
56300;DHT22;42209;6.376;-10.782;2023-09-07T14:22:26;23.40;86.70
56300;DHT22;42209;6.376;-10.782;2023-09-07T14:24:55;23.40;87.10
56300;DHT22;42209;6.376;-10.782;2023-09-07T14:27:23;23.50;87.50
56300;DHT22;42209;6.376;-10.782;2023-09-07T14:29:52;23.60;87.90
56300;DHT22;42209;6.376;-10.782;2023-09-07T14:32:20;23.60;87.70
56300;DHT22;42209;6.376;-10.782;2023-09-07T14:34:49;23.70;88.30
56300;DHT22;42209;6.376;-10.782;2023-09-07T14:37:17;23.80;87.50
56300;DHT22;42209;6.376;-10.782;2023-09-07T14:39:46;23.50;80.70
56300;DHT22;42209;6.376;-10.782;2023-09-07T14:42:15;23.20;76.00
56300;DHT22;42209;6.376;-10.782;2023-09-07T14:44:46;23.00;73.10
56300;DHT22;42209;6.376;-10.782;2023-09-07T14:47:16;22.80;70.20
56300;DHT22;42209;6.376;-10.782;2023-09-07T14:49:44;22.60;68.10
56300;DHT22;42209;6.376;-10.782;2023-09-07T14:52:13;22.70;72.70
56300;DHT22;42209;6.376;-10.782;2023-09-07T14:54:42;22.80;76.80
56300;DHT22;42209;6.376;-10.782;2023-09-07T14:57:11;22.90;79.30
56300;DHT22;42209;6.376;-10.782;2023-09-07T14:59:39;23.00;81.20
56300;DHT22;42209;6.376;-10.782;2023-09-07T15:02:07;23.10;82.90
56300;DHT22;42209;6.376;-10.782;2023-09-07T15:04:37;23.20;84.50
56300;DHT22;42209;6.376;-10.782;2023-09-07T15:07:07;23.30;85.80
56300;DHT22;42209;6.376;-10.782;2023-09-07T15:09:35;23.40;86.80
56300;DHT22;42209;6.376;-10.782;2023-09-07T15:12:04;23.40;88.20
56300;DHT22;42209;6.376;-10.782;2023-09-07T15:14:32;23.50;88.50
56300;DHT22;42209;6.376;-10.782;2023-09-07T15:17:01;23.60;88.80
56300;DHT22;42209;6.376;-10.782;2023-09-07T15:19:29;23.60;89.50
56300;DHT22;42209;6.376;-10.782;2023-09-07T15:21:58;23.70;89.00
56300;DHT22;42209;6.376;-10.782;2023-09-07T15:24:26;23.70;89.70
56300;DHT22;42209;6.376;-10.782;2023-09-07T15:26:55;23.70;83.60
56300;DHT22;42209;6.376;-10.782;2023-09-07T15:29:23;23.40;78.40
56300;DHT22;42209;6.376;-10.782;2023-09-07T15:31:52;23.10;74.30
56300;DHT22;42209;6.376;-10.782;2023-09-07T15:34:20;22.90;71.40
56300;DHT22;42209;6.376;-10.782;2023-09-07T15:36:48;22.80;70.90
56300;DHT22;42209;6.376;-10.782;2023-09-07T15:39:17;22.80;76.60
56300;DHT22;42209;6.376;-10.782;2023-09-07T15:41:48;23.00;79.50
56300;DHT22;42209;6.376;-10.782;2023-09-07T15:44:17;23.10;81.50
56300;DHT22;42209;6.376;-10.782;2023-09-07T15:46:45;23.20;83.00